sensor_id;sensor_type;location;lat;lon;timestamp;P1;durP1;ratioP1;P2;durP2;ratioP2
59930;SDS011;45790;51.538;6.736;2023-06-01T00:02:08;9.85;;;4.93;;
59930;SDS011;45790;51.538;6.736;2023-06-01T00:04:34;7.68;;;4.65;;
59930;SDS011;45790;51.538;6.736;2023-06-01T00:06:59;9.32;;;4.82;;
59930;SDS011;45790;51.538;6.736;2023-06-01T00:09:28;9.25;;;4.70;;
59930;SDS011;45790;51.538;6.736;2023-06-01T00:11:53;8.50;;;4.90;;
59930;SDS011;45790;51.538;6.736;2023-06-01T00:14:18;12.10;;;5.40;;
59930;SDS011;45790;51.538;6.736;2023-06-01T00:16:44;10.25;;;5.30;;
59930;SDS011;45790;51.538;6.736;2023-06-01T00:19:10;10.07;;;5.10;;
59930;SDS011;45790;51.538;6.736;2023-06-01T00:21:36;10.05;;;5.03;;
59930;SDS011;45790;51.538;6.736;2023-06-01T00:24:01;7.68;;;4.90;;
59930;SDS011;45790;51.538;6.736;2023-06-01T00:26:27;10.95;;;5.47;;
59930;SDS011;45790;51.538;6.736;2023-06-01T00:28:52;10.93;;;5.82;;
59930;SDS011;45790;51.538;6.736;2023-06-01T00:31:17;12.10;;;5.70;;
59930;SDS011;45790;51.538;6.736;2023-06-01T00:33:43;10.97;;;5.87;;
59930;SDS011;45790;51.538;6.736;2023-06-01T00:36:08;15.97;;;6.30;;
59930;SDS011;45790;51.538;6.736;2023-06-01T00:38:33;10.32;;;6.55;;
59930;SDS011;45790;51.538;6.736;2023-06-01T00:40:58;10.67;;;6.13;;
59930;SDS011;45790;51.538;6.736;2023-06-01T00:43:24;11.98;;;6.32;;
59930;SDS011;45790;51.538;6.736;2023-06-01T00:45:49;10.32;;;6.50;;
59930;SDS011;45790;51.538;6.736;2023-06-01T00:48:15;9.90;;;6.22;;
59930;SDS011;45790;51.538;6.736;2023-06-01T00:50:41;10.05;;;6.55;;
59930;SDS011;45790;51.538;6.736;2023-06-01T00:53:07;12.25;;;6.78;;
59930;SDS011;45790;51.538;6.736;2023-06-01T00:55:34;12.07;;;6.03;;
59930;SDS011;45790;51.538;6.736;2023-06-01T00:57:59;11.95;;;6.75;;
59930;SDS011;45790;51.538;6.736;2023-06-01T01:00:26;11.18;;;6.10;;
59930;SDS011;45790;51.538;6.736;2023-06-01T01:02:52;12.73;;;6.20;;
59930;SDS011;45790;51.538;6.736;2023-06-01T01:05:17;11.98;;;6.82;;
59930;SDS011;45790;51.538;6.736;2023-06-01T01:07:58;9.98;;;6.70;;
59930;SDS011;45790;51.538;6.736;2023-06-01T01:15:32;13.70;;;8.30;;
59930;SDS011;45790;51.538;6.736;2023-06-01T01:18:02;12.05;;;8.00;;
59930;SDS011;45790;51.538;6.736;2023-06-01T01:20:29;14.07;;;8.65;;
59930;SDS011;45790;51.538;6.736;2023-06-01T01:25:39;12.90;;;8.45;;
59930;SDS011;45790;51.538;6.736;2023-06-01T01:30:58;11.75;;;8.25;;
59930;SDS011;45790;51.538;6.736;2023-06-01T01:33:24;14.32;;;9.52;;
59930;SDS011;45790;51.538;6.736;2023-06-01T01:35:50;13.18;;;9.30;;
59930;SDS011;45790;51.538;6.736;2023-06-01T01:38:16;15.07;;;9.13;;
59930;SDS011;45790;51.538;6.736;2023-06-01T01:40:41;13.00;;;9.23;;
59930;SDS011;45790;51.538;6.736;2023-06-01T01:43:07;15.77;;;8.90;;
59930;SDS011;45790;51.538;6.736;2023-06-01T01:45:32;16.45;;;9.90;;
59930;SDS011;45790;51.538;6.736;2023-06-01T01:48:05;15.98;;;9.40;;
59930;SDS011;45790;51.538;6.736;2023-06-01T01:50:55;13.77;;;9.10;;
59930;SDS011;45790;51.538;6.736;2023-06-01T01:53:23;15.65;;;9.05;;
59930;SDS011;45790;51.538;6.736;2023-06-01T01:55:49;13.73;;;8.77;;
59930;SDS011;45790;51.538;6.736;2023-06-01T01:58:15;15.25;;;9.02;;
59930;SDS011;45790;51.538;6.736;2023-06-01T02:00:42;18.42;;;9.43;;
59930;SDS011;45790;51.538;6.736;2023-06-01T02:03:15;12.65;;;9.45;;
59930;SDS011;45790;51.538;6.736;2023-06-01T02:05:40;17.75;;;9.23;;
59930;SDS011;45790;51.538;6.736;2023-06-01T02:08:05;15.20;;;9.63;;
59930;SDS011;45790;51.538;6.736;2023-06-01T02:10:30;16.07;;;10.40;;
59930;SDS011;45790;51.538;6.736;2023-06-01T02:12:56;16.67;;;10.10;;
59930;SDS011;45790;51.538;6.736;2023-06-01T02:15:21;15.43;;;9.90;;
59930;SDS011;45790;51.538;6.736;2023-06-01T02:17:46;15.57;;;9.60;;
59930;SDS011;45790;51.538;6.736;2023-06-01T02:20:11;13.15;;;8.35;;
59930;SDS011;45790;51.538;6.736;2023-06-01T02:22:37;16.58;;;10.63;;
59930;SDS011;45790;51.538;6.736;2023-06-01T02:25:02;15.70;;;10.40;;
59930;SDS011;45790;51.538;6.736;2023-06-01T02:27:30;15.05;;;10.50;;
59930;SDS011;45790;51.538;6.736;2023-06-01T02:29:55;15.90;;;11.38;;
59930;SDS011;45790;51.538;6.736;2023-06-01T02:32:20;16.40;;;11.27;;
59930;SDS011;45790;51.538;6.736;2023-06-01T02:34:46;20.17;;;11.70;;
59930;SDS011;45790;51.538;6.736;2023-06-01T02:37:11;19.13;;;12.00;;
59930;SDS011;45790;51.538;6.736;2023-06-01T02:39:36;17.20;;;10.80;;
59930;SDS011;45790;51.538;6.736;2023-06-01T02:42:01;17.95;;;11.43;;
59930;SDS011;45790;51.538;6.736;2023-06-01T02:44:26;16.37;;;11.60;;
59930;SDS011;45790;51.538;6.736;2023-06-01T02:46:52;16.45;;;10.75;;
59930;SDS011;45790;51.538;6.736;2023-06-01T02:49:17;19.67;;;10.98;;
59930;SDS011;45790;51.538;6.736;2023-06-01T02:51:42;16.98;;;10.95;;
59930;SDS011;45790;51.538;6.736;2023-06-01T02:54:07;20.23;;;11.13;;
59930;SDS011;45790;51.538;6.736;2023-06-01T02:56:33;16.00;;;11.33;;
59930;SDS011;45790;51.538;6.736;2023-06-01T02:58:58;15.23;;;10.77;;
59930;SDS011;45790;51.538;6.736;2023-06-01T03:01:23;20.88;;;11.88;;
59930;SDS011;45790;51.538;6.736;2023-06-01T03:03:48;19.70;;;11.75;;
59930;SDS011;45790;51.538;6.736;2023-06-01T03:06:14;16.00;;;11.15;;
59930;SDS011;45790;51.538;6.736;2023-06-01T03:08:44;19.40;;;12.38;;
59930;SDS011;45790;51.538;6.736;2023-06-01T03:11:09;16.77;;;11.75;;
59930;SDS011;45790;51.538;6.736;2023-06-01T03:13:34;20.33;;;11.90;;
59930;SDS011;45790;51.538;6.736;2023-06-01T03:15:59;20.17;;;12.53;;
59930;SDS011;45790;51.538;6.736;2023-06-01T03:18:25;17.50;;;11.90;;
59930;SDS011;45790;51.538;6.736;2023-06-01T03:20:50;17.00;;;10.88;;
59930;SDS011;45790;51.538;6.736;2023-06-01T03:23:17;15.57;;;11.40;;
59930;SDS011;45790;51.538;6.736;2023-06-01T03:25:42;16.00;;;11.07;;
59930;SDS011;45790;51.538;6.736;2023-06-01T03:28:07;19.00;;;11.60;;
59930;SDS011;45790;51.538;6.736;2023-06-01T03:30:33;17.27;;;11.50;;
59930;SDS011;45790;51.538;6.736;2023-06-01T03:32:58;16.87;;;11.47;;
59930;SDS011;45790;51.538;6.736;2023-06-01T03:35:23;19.43;;;11.20;;
59930;SDS011;45790;51.538;6.736;2023-06-01T03:37:48;18.30;;;10.87;;
59930;SDS011;45790;51.538;6.736;2023-06-01T03:40:13;14.83;;;10.87;;
59930;SDS011;45790;51.538;6.736;2023-06-01T03:42:40;13.80;;;10.35;;
59930;SDS011;45790;51.538;6.736;2023-06-01T03:45:05;16.88;;;10.23;;
59930;SDS011;45790;51.538;6.736;2023-06-01T03:47:31;14.32;;;9.82;;
59930;SDS011;45790;51.538;6.736;2023-06-01T03:49:56;16.52;;;10.82;;
59930;SDS011;45790;51.538;6.736;2023-06-01T03:52:23;16.25;;;10.50;;
59930;SDS011;45790;51.538;6.736;2023-06-01T03:54:48;15.77;;;10.77;;
59930;SDS011;45790;51.538;6.736;2023-06-01T03:57:13;16.63;;;10.27;;
59930;SDS011;45790;51.538;6.736;2023-06-01T03:59:39;15.68;;;9.73;;
59930;SDS011;45790;51.538;6.736;2023-06-01T04:02:04;13.93;;;9.70;;
59930;SDS011;45790;51.538;6.736;2023-06-01T04:04:29;15.35;;;10.45;;
59930;SDS011;45790;51.538;6.736;2023-06-01T04:06:55;13.63;;;9.67;;
59930;SDS011;45790;51.538;6.736;2023-06-01T04:09:21;12.68;;;9.80;;
59930;SDS011;45790;51.538;6.736;2023-06-01T04:11:46;18.30;;;10.05;;
59930;SDS011;45790;51.538;6.736;2023-06-01T04:14:12;16.50;;;8.93;;
59930;SDS011;45790;51.538;6.736;2023-06-01T04:16:37;14.32;;;9.68;;
59930;SDS011;45790;51.538;6.736;2023-06-01T04:19:02;16.27;;;9.43;;
59930;SDS011;45790;51.538;6.736;2023-06-01T04:21:27;15.23;;;9.73;;
59930;SDS011;45790;51.538;6.736;2023-06-01T04:23:53;13.00;;;10.05;;
59930;SDS011;45790;51.538;6.736;2023-06-01T04:26:18;13.60;;;9.60;;
59930;SDS011;45790;51.538;6.736;2023-06-01T04:28:43;15.82;;;9.75;;
59930;SDS011;45790;51.538;6.736;2023-06-01T04:31:11;16.48;;;9.90;;
59930;SDS011;45790;51.538;6.736;2023-06-01T04:33:43;13.35;;;10.38;;
59930;SDS011;45790;51.538;6.736;2023-06-01T04:36:11;14.70;;;10.30;;
59930;SDS011;45790;51.538;6.736;2023-06-01T04:38:36;13.38;;;9.98;;
59930;SDS011;45790;51.538;6.736;2023-06-01T04:41:03;11.73;;;8.63;;
59930;SDS011;45790;51.538;6.736;2023-06-01T04:43:28;14.03;;;9.00;;
59930;SDS011;45790;51.538;6.736;2023-06-01T04:45:53;13.07;;;9.57;;
59930;SDS011;45790;51.538;6.736;2023-06-01T04:48:18;13.13;;;9.60;;
59930;SDS011;45790;51.538;6.736;2023-06-01T04:50:45;15.55;;;10.23;;
59930;SDS011;45790;51.538;6.736;2023-06-01T04:53:10;14.80;;;9.70;;
59930;SDS011;45790;51.538;6.736;2023-06-01T04:55:35;13.75;;;9.20;;
59930;SDS011;45790;51.538;6.736;2023-06-01T04:58:01;14.55;;;9.57;;
59930;SDS011;45790;51.538;6.736;2023-06-01T05:00:26;16.33;;;9.93;;
59930;SDS011;45790;51.538;6.736;2023-06-01T05:02:51;15.02;;;10.30;;
59930;SDS011;45790;51.538;6.736;2023-06-01T05:05:16;13.43;;;9.67;;
59930;SDS011;45790;51.538;6.736;2023-06-01T05:07:42;18.10;;;9.57;;
59930;SDS011;45790;51.538;6.736;2023-06-01T05:10:08;15.23;;;9.70;;
59930;SDS011;45790;51.538;6.736;2023-06-01T05:12:33;14.77;;;9.52;;
59930;SDS011;45790;51.538;6.736;2023-06-01T05:14:59;14.40;;;9.77;;
59930;SDS011;45790;51.538;6.736;2023-06-01T05:17:24;14.07;;;9.85;;
59930;SDS011;45790;51.538;6.736;2023-06-01T05:19:49;12.93;;;9.10;;
59930;SDS011;45790;51.538;6.736;2023-06-01T05:22:15;12.33;;;9.27;;
59930;SDS011;45790;51.538;6.736;2023-06-01T05:24:40;17.08;;;9.95;;
59930;SDS011;45790;51.538;6.736;2023-06-01T05:27:05;15.50;;;9.82;;
59930;SDS011;45790;51.538;6.736;2023-06-01T05:29:31;17.65;;;10.10;;
59930;SDS011;45790;51.538;6.736;2023-06-01T05:31:56;14.73;;;9.23;;
59930;SDS011;45790;51.538;6.736;2023-06-01T05:34:21;17.07;;;9.23;;
59930;SDS011;45790;51.538;6.736;2023-06-01T05:36:47;16.52;;;9.68;;
59930;SDS011;45790;51.538;6.736;2023-06-01T05:39:13;15.00;;;9.10;;
59930;SDS011;45790;51.538;6.736;2023-06-01T05:41:39;15.95;;;10.07;;
59930;SDS011;45790;51.538;6.736;2023-06-01T05:44:05;15.45;;;8.68;;
59930;SDS011;45790;51.538;6.736;2023-06-01T05:46:30;16.13;;;9.43;;
59930;SDS011;45790;51.538;6.736;2023-06-01T05:48:56;13.80;;;9.60;;
59930;SDS011;45790;51.538;6.736;2023-06-01T05:51:21;15.63;;;10.10;;
59930;SDS011;45790;51.538;6.736;2023-06-01T05:53:46;15.30;;;9.23;;
59930;SDS011;45790;51.538;6.736;2023-06-01T05:56:11;15.25;;;9.52;;
59930;SDS011;45790;51.538;6.736;2023-06-01T05:58:37;14.90;;;9.45;;
59930;SDS011;45790;51.538;6.736;2023-06-01T06:01:02;15.57;;;9.43;;
59930;SDS011;45790;51.538;6.736;2023-06-01T06:03:28;12.40;;;8.95;;
59930;SDS011;45790;51.538;6.736;2023-06-01T06:05:54;14.32;;;8.93;;
59930;SDS011;45790;51.538;6.736;2023-06-01T06:08:19;13.90;;;8.90;;
59930;SDS011;45790;51.538;6.736;2023-06-01T06:10:44;11.60;;;8.80;;
59930;SDS011;45790;51.538;6.736;2023-06-01T06:13:09;14.73;;;8.95;;
59930;SDS011;45790;51.538;6.736;2023-06-01T06:15:35;15.20;;;8.52;;
59930;SDS011;45790;51.538;6.736;2023-06-01T06:18:00;13.37;;;9.00;;
59930;SDS011;45790;51.538;6.736;2023-06-01T06:20:25;15.43;;;8.30;;
59930;SDS011;45790;51.538;6.736;2023-06-01T06:22:51;14.80;;;8.47;;
59930;SDS011;45790;51.538;6.736;2023-06-01T06:25:16;15.77;;;9.15;;
59930;SDS011;45790;51.538;6.736;2023-06-01T06:27:42;12.95;;;8.52;;
59930;SDS011;45790;51.538;6.736;2023-06-01T06:30:07;18.35;;;8.57;;
59930;SDS011;45790;51.538;6.736;2023-06-01T06:32:32;16.13;;;8.52;;
59930;SDS011;45790;51.538;6.736;2023-06-01T06:34:58;14.13;;;8.68;;
59930;SDS011;45790;51.538;6.736;2023-06-01T06:37:23;14.33;;;9.07;;
59930;SDS011;45790;51.538;6.736;2023-06-01T06:39:48;13.67;;;7.93;;
59930;SDS011;45790;51.538;6.736;2023-06-01T06:42:13;12.27;;;7.20;;
59930;SDS011;45790;51.538;6.736;2023-06-01T06:44:38;15.90;;;8.43;;
59930;SDS011;45790;51.538;6.736;2023-06-01T06:47:04;13.73;;;8.80;;
59930;SDS011;45790;51.538;6.736;2023-06-01T06:49:30;12.93;;;8.40;;
59930;SDS011;45790;51.538;6.736;2023-06-01T06:51:55;15.10;;;8.23;;
59930;SDS011;45790;51.538;6.736;2023-06-01T06:54:21;14.32;;;8.55;;
59930;SDS011;45790;51.538;6.736;2023-06-01T06:56:46;11.48;;;7.72;;
59930;SDS011;45790;51.538;6.736;2023-06-01T06:59:11;11.00;;;7.57;;
59930;SDS011;45790;51.538;6.736;2023-06-01T07:01:36;15.50;;;8.52;;
59930;SDS011;45790;51.538;6.736;2023-06-01T07:04:03;13.00;;;8.27;;
59930;SDS011;45790;51.538;6.736;2023-06-01T07:06:28;15.82;;;8.57;;
59930;SDS011;45790;51.538;6.736;2023-06-01T07:08:53;15.00;;;8.50;;
59930;SDS011;45790;51.538;6.736;2023-06-01T07:11:19;14.83;;;8.27;;
59930;SDS011;45790;51.538;6.736;2023-06-01T07:13:44;13.30;;;7.70;;
59930;SDS011;45790;51.538;6.736;2023-06-01T07:16:09;13.93;;;8.98;;
59930;SDS011;45790;51.538;6.736;2023-06-01T07:18:35;15.00;;;8.38;;
59930;SDS011;45790;51.538;6.736;2023-06-01T07:21:01;12.93;;;7.73;;
59930;SDS011;45790;51.538;6.736;2023-06-01T07:23:26;12.77;;;7.30;;
59930;SDS011;45790;51.538;6.736;2023-06-01T07:25:51;13.18;;;7.90;;
59930;SDS011;45790;51.538;6.736;2023-06-01T07:28:17;16.00;;;8.57;;
59930;SDS011;45790;51.538;6.736;2023-06-01T07:30:42;12.23;;;8.30;;
59930;SDS011;45790;51.538;6.736;2023-06-01T07:33:07;11.93;;;7.77;;
59930;SDS011;45790;51.538;6.736;2023-06-01T07:35:33;10.57;;;7.18;;
59930;SDS011;45790;51.538;6.736;2023-06-01T07:37:58;12.18;;;7.53;;
59930;SDS011;45790;51.538;6.736;2023-06-01T07:40:23;11.55;;;7.18;;
59930;SDS011;45790;51.538;6.736;2023-06-01T07:42:49;14.93;;;8.07;;
59930;SDS011;45790;51.538;6.736;2023-06-01T07:45:14;13.27;;;7.43;;
59930;SDS011;45790;51.538;6.736;2023-06-01T07:47:40;11.68;;;7.20;;
59930;SDS011;45790;51.538;6.736;2023-06-01T07:50:05;12.23;;;7.33;;
59930;SDS011;45790;51.538;6.736;2023-06-01T07:52:30;11.35;;;7.50;;
59930;SDS011;45790;51.538;6.736;2023-06-01T07:54:56;11.48;;;7.15;;
59930;SDS011;45790;51.538;6.736;2023-06-01T07:57:21;11.63;;;6.80;;
59930;SDS011;45790;51.538;6.736;2023-06-01T07:59:46;13.50;;;7.20;;
59930;SDS011;45790;51.538;6.736;2023-06-01T08:02:12;14.70;;;7.20;;
59930;SDS011;45790;51.538;6.736;2023-06-01T08:04:38;12.77;;;7.05;;
59930;SDS011;45790;51.538;6.736;2023-06-01T08:07:03;15.52;;;7.38;;
59930;SDS011;45790;51.538;6.736;2023-06-01T08:09:31;12.68;;;6.70;;
59930;SDS011;45790;51.538;6.736;2023-06-01T08:11:56;12.43;;;6.83;;
59930;SDS011;45790;51.538;6.736;2023-06-01T08:14:21;11.15;;;6.90;;
59930;SDS011;45790;51.538;6.736;2023-06-01T08:16:47;12.43;;;6.07;;
59930;SDS011;45790;51.538;6.736;2023-06-01T08:19:12;13.82;;;7.32;;
59930;SDS011;45790;51.538;6.736;2023-06-01T08:21:37;10.73;;;6.80;;
59930;SDS011;45790;51.538;6.736;2023-06-01T08:24:03;14.53;;;6.57;;
59930;SDS011;45790;51.538;6.736;2023-06-01T08:26:28;13.57;;;6.90;;
59930;SDS011;45790;51.538;6.736;2023-06-01T08:28:53;11.73;;;6.80;;
59930;SDS011;45790;51.538;6.736;2023-06-01T08:31:23;12.23;;;6.57;;
59930;SDS011;45790;51.538;6.736;2023-06-01T08:33:49;21.83;;;7.20;;
59930;SDS011;45790;51.538;6.736;2023-06-01T08:36:14;13.38;;;6.80;;
59930;SDS011;45790;51.538;6.736;2023-06-01T08:38:39;12.52;;;6.40;;
59930;SDS011;45790;51.538;6.736;2023-06-01T08:41:14;17.17;;;7.13;;
59930;SDS011;45790;51.538;6.736;2023-06-01T08:43:42;14.02;;;6.45;;
59930;SDS011;45790;51.538;6.736;2023-06-01T08:46:08;11.68;;;6.82;;
59930;SDS011;45790;51.538;6.736;2023-06-01T08:48:33;11.63;;;6.95;;
59930;SDS011;45790;51.538;6.736;2023-06-01T08:50:59;15.02;;;6.32;;
59930;SDS011;45790;51.538;6.736;2023-06-01T08:53:25;11.60;;;6.95;;
59930;SDS011;45790;51.538;6.736;2023-06-01T08:55:52;11.68;;;6.50;;
59930;SDS011;45790;51.538;6.736;2023-06-01T08:58:17;13.40;;;6.50;;
59930;SDS011;45790;51.538;6.736;2023-06-01T09:00:43;13.98;;;6.35;;
59930;SDS011;45790;51.538;6.736;2023-06-01T09:03:08;13.38;;;6.68;;
59930;SDS011;45790;51.538;6.736;2023-06-01T09:05:33;9.47;;;6.27;;
59930;SDS011;45790;51.538;6.736;2023-06-01T09:07:58;12.17;;;6.27;;
59930;SDS011;45790;51.538;6.736;2023-06-01T09:10:24;10.48;;;6.55;;
59930;SDS011;45790;51.538;6.736;2023-06-01T09:12:52;13.40;;;6.38;;
59930;SDS011;45790;51.538;6.736;2023-06-01T09:15:18;9.60;;;5.85;;
59930;SDS011;45790;51.538;6.736;2023-06-01T09:17:51;14.63;;;6.97;;
59930;SDS011;45790;51.538;6.736;2023-06-01T09:20:27;10.07;;;5.93;;
59930;SDS011;45790;51.538;6.736;2023-06-01T09:22:53;14.70;;;6.80;;
59930;SDS011;45790;51.538;6.736;2023-06-01T09:25:28;14.50;;;6.68;;
59930;SDS011;45790;51.538;6.736;2023-06-01T09:27:54;10.60;;;7.00;;
59930;SDS011;45790;51.538;6.736;2023-06-01T09:30:20;13.20;;;7.18;;
59930;SDS011;45790;51.538;6.736;2023-06-01T09:32:46;12.68;;;6.55;;
59930;SDS011;45790;51.538;6.736;2023-06-01T09:38:02;10.45;;;6.57;;
59930;SDS011;45790;51.538;6.736;2023-06-01T09:40:31;13.77;;;6.75;;
59930;SDS011;45790;51.538;6.736;2023-06-01T09:42:56;13.77;;;6.65;;
59930;SDS011;45790;51.538;6.736;2023-06-01T09:45:22;13.00;;;6.67;;
59930;SDS011;45790;51.538;6.736;2023-06-01T09:47:48;21.17;;;7.18;;
59930;SDS011;45790;51.538;6.736;2023-06-01T09:50:31;10.45;;;6.10;;
59930;SDS011;45790;51.538;6.736;2023-06-01T09:52:59;9.07;;;6.07;;
59930;SDS011;45790;51.538;6.736;2023-06-01T09:55:25;11.75;;;6.10;;
59930;SDS011;45790;51.538;6.736;2023-06-01T09:57:50;9.98;;;5.95;;
59930;SDS011;45790;51.538;6.736;2023-06-01T10:00:21;11.37;;;6.70;;
59930;SDS011;45790;51.538;6.736;2023-06-01T10:02:48;14.32;;;6.18;;
59930;SDS011;45790;51.538;6.736;2023-06-01T10:05:13;14.90;;;6.70;;
59930;SDS011;45790;51.538;6.736;2023-06-01T10:07:39;11.88;;;6.25;;
59930;SDS011;45790;51.538;6.736;2023-06-01T10:10:05;11.55;;;6.30;;
59930;SDS011;45790;51.538;6.736;2023-06-01T10:12:31;11.57;;;6.38;;
59930;SDS011;45790;51.538;6.736;2023-06-01T10:14:56;10.10;;;6.00;;
59930;SDS011;45790;51.538;6.736;2023-06-01T10:17:22;12.93;;;5.97;;
59930;SDS011;45790;51.538;6.736;2023-06-01T10:19:47;14.55;;;6.10;;
59930;SDS011;45790;51.538;6.736;2023-06-01T10:22:13;11.35;;;6.03;;
59930;SDS011;45790;51.538;6.736;2023-06-01T10:24:38;13.60;;;6.03;;
59930;SDS011;45790;51.538;6.736;2023-06-01T10:27:19;10.80;;;5.47;;
59930;SDS011;45790;51.538;6.736;2023-06-01T10:34:56;12.43;;;5.90;;
59930;SDS011;45790;51.538;6.736;2023-06-01T10:37:21;12.20;;;6.55;;
59930;SDS011;45790;51.538;6.736;2023-06-01T10:39:47;13.90;;;5.90;;
59930;SDS011;45790;51.538;6.736;2023-06-01T10:44:49;13.63;;;6.60;;
59930;SDS011;45790;51.538;6.736;2023-06-01T10:52:33;12.98;;;7.18;;
59930;SDS011;45790;51.538;6.736;2023-06-01T10:57:38;11.50;;;5.65;;
59930;SDS011;45790;51.538;6.736;2023-06-01T11:08:00;12.82;;;7.60;;
59930;SDS011;45790;51.538;6.736;2023-06-01T11:13:11;16.95;;;7.90;;
59930;SDS011;45790;51.538;6.736;2023-06-01T11:15:37;12.80;;;7.03;;
59930;SDS011;45790;51.538;6.736;2023-06-01T11:20:48;12.75;;;7.10;;
59930;SDS011;45790;51.538;6.736;2023-06-01T11:23:14;12.02;;;7.30;;
59930;SDS011;45790;51.538;6.736;2023-06-01T11:25:40;13.40;;;7.65;;
59930;SDS011;45790;51.538;6.736;2023-06-01T11:28:06;13.07;;;6.82;;
59930;SDS011;45790;51.538;6.736;2023-06-01T11:30:34;10.27;;;6.50;;
59930;SDS011;45790;51.538;6.736;2023-06-01T11:33:00;12.25;;;6.78;;
59930;SDS011;45790;51.538;6.736;2023-06-01T11:35:26;15.30;;;7.38;;
59930;SDS011;45790;51.538;6.736;2023-06-01T11:37:53;12.27;;;6.40;;
59930;SDS011;45790;51.538;6.736;2023-06-01T11:40:19;14.82;;;6.53;;
59930;SDS011;45790;51.538;6.736;2023-06-01T11:42:45;14.07;;;7.07;;
59930;SDS011;45790;51.538;6.736;2023-06-01T11:45:14;12.07;;;6.50;;
59930;SDS011;45790;51.538;6.736;2023-06-01T11:47:39;12.35;;;6.47;;
59930;SDS011;45790;51.538;6.736;2023-06-01T11:50:04;11.83;;;6.60;;
59930;SDS011;45790;51.538;6.736;2023-06-01T11:52:30;9.27;;;6.18;;
59930;SDS011;45790;51.538;6.736;2023-06-01T11:55:01;12.75;;;5.93;;
59930;SDS011;45790;51.538;6.736;2023-06-01T11:57:26;11.48;;;6.00;;
59930;SDS011;45790;51.538;6.736;2023-06-01T11:59:52;9.67;;;6.03;;
59930;SDS011;45790;51.538;6.736;2023-06-01T12:04:56;11.88;;;5.93;;
59930;SDS011;45790;51.538;6.736;2023-06-01T12:07:22;11.80;;;6.68;;
59930;SDS011;45790;51.538;6.736;2023-06-01T12:09:47;13.70;;;6.43;;
59930;SDS011;45790;51.538;6.736;2023-06-01T12:12:13;11.20;;;5.68;;
59930;SDS011;45790;51.538;6.736;2023-06-01T12:14:38;8.93;;;5.40;;
59930;SDS011;45790;51.538;6.736;2023-06-01T12:17:04;12.75;;;6.25;;
59930;SDS011;45790;51.538;6.736;2023-06-01T12:19:30;12.63;;;6.40;;
59930;SDS011;45790;51.538;6.736;2023-06-01T12:21:57;10.40;;;5.60;;
59930;SDS011;45790;51.538;6.736;2023-06-01T12:24:26;12.70;;;5.47;;
59930;SDS011;45790;51.538;6.736;2023-06-01T12:26:52;10.60;;;5.60;;
59930;SDS011;45790;51.538;6.736;2023-06-01T12:29:33;10.02;;;5.68;;
59930;SDS011;45790;51.538;6.736;2023-06-01T12:31:58;14.07;;;5.90;;
59930;SDS011;45790;51.538;6.736;2023-06-01T12:34:23;11.93;;;5.63;;
59930;SDS011;45790;51.538;6.736;2023-06-01T12:36:49;11.50;;;5.60;;
59930;SDS011;45790;51.538;6.736;2023-06-01T12:39:14;11.50;;;5.85;;
59930;SDS011;45790;51.538;6.736;2023-06-01T12:41:48;9.00;;;5.57;;
59930;SDS011;45790;51.538;6.736;2023-06-01T12:44:19;14.45;;;5.93;;
59930;SDS011;45790;51.538;6.736;2023-06-01T12:46:45;12.90;;;5.90;;
59930;SDS011;45790;51.538;6.736;2023-06-01T12:49:14;11.23;;;6.07;;
59930;SDS011;45790;51.538;6.736;2023-06-01T12:51:39;11.15;;;5.32;;
59930;SDS011;45790;51.538;6.736;2023-06-01T12:54:05;13.23;;;6.18;;
59930;SDS011;45790;51.538;6.736;2023-06-01T12:56:30;10.70;;;6.53;;
59930;SDS011;45790;51.538;6.736;2023-06-01T12:58:55;11.87;;;5.27;;
59930;SDS011;45790;51.538;6.736;2023-06-01T13:01:21;12.70;;;5.22;;
59930;SDS011;45790;51.538;6.736;2023-06-01T13:03:46;9.60;;;5.15;;
59930;SDS011;45790;51.538;6.736;2023-06-01T13:06:12;13.80;;;5.53;;
59930;SDS011;45790;51.538;6.736;2023-06-01T13:08:37;10.10;;;5.50;;
59930;SDS011;45790;51.538;6.736;2023-06-01T13:11:03;15.93;;;5.47;;
59930;SDS011;45790;51.538;6.736;2023-06-01T13:13:28;9.00;;;4.82;;
59930;SDS011;45790;51.538;6.736;2023-06-01T13:15:53;9.20;;;4.65;;
59930;SDS011;45790;51.538;6.736;2023-06-01T13:18:19;9.98;;;5.65;;
59930;SDS011;45790;51.538;6.736;2023-06-01T13:20:44;13.47;;;5.43;;
59930;SDS011;45790;51.538;6.736;2023-06-01T13:23:09;8.03;;;5.60;;
59930;SDS011;45790;51.538;6.736;2023-06-01T13:25:36;9.43;;;5.18;;
59930;SDS011;45790;51.538;6.736;2023-06-01T13:28:02;9.15;;;4.85;;
59930;SDS011;45790;51.538;6.736;2023-06-01T13:30:27;9.70;;;5.53;;
59930;SDS011;45790;51.538;6.736;2023-06-01T13:32:53;11.07;;;6.35;;
59930;SDS011;45790;51.538;6.736;2023-06-01T13:35:18;13.00;;;6.10;;
59930;SDS011;45790;51.538;6.736;2023-06-01T13:37:44;9.32;;;5.28;;
59930;SDS011;45790;51.538;6.736;2023-06-01T13:40:09;9.63;;;5.07;;
59930;SDS011;45790;51.538;6.736;2023-06-01T13:42:34;9.88;;;5.25;;
59930;SDS011;45790;51.538;6.736;2023-06-01T13:44:59;12.70;;;5.67;;
59930;SDS011;45790;51.538;6.736;2023-06-01T13:47:24;9.27;;;5.50;;
59930;SDS011;45790;51.538;6.736;2023-06-01T13:49:50;9.23;;;5.50;;
59930;SDS011;45790;51.538;6.736;2023-06-01T13:52:15;11.18;;;5.78;;
59930;SDS011;45790;51.538;6.736;2023-06-01T13:54:41;11.07;;;5.65;;
59930;SDS011;45790;51.538;6.736;2023-06-01T13:57:06;12.18;;;4.63;;
59930;SDS011;45790;51.538;6.736;2023-06-01T13:59:32;14.15;;;5.53;;
59930;SDS011;45790;51.538;6.736;2023-06-01T14:02:00;12.93;;;5.93;;
59930;SDS011;45790;51.538;6.736;2023-06-01T14:04:25;21.23;;;5.28;;
59930;SDS011;45790;51.538;6.736;2023-06-01T14:06:50;8.37;;;4.50;;
59930;SDS011;45790;51.538;6.736;2023-06-01T14:09:18;33.00;;;5.33;;
59930;SDS011;45790;51.538;6.736;2023-06-01T14:11:43;15.95;;;5.05;;
59930;SDS011;45790;51.538;6.736;2023-06-01T14:14:09;11.68;;;5.25;;
59930;SDS011;45790;51.538;6.736;2023-06-01T14:16:34;7.78;;;4.43;;
59930;SDS011;45790;51.538;6.736;2023-06-01T14:18:59;17.13;;;5.53;;
59930;SDS011;45790;51.538;6.736;2023-06-01T14:21:25;10.50;;;5.60;;
59930;SDS011;45790;51.538;6.736;2023-06-01T14:23:50;15.15;;;5.80;;
59930;SDS011;45790;51.538;6.736;2023-06-01T14:26:15;11.18;;;5.70;;
59930;SDS011;45790;51.538;6.736;2023-06-01T14:28:40;12.10;;;5.90;;
59930;SDS011;45790;51.538;6.736;2023-06-01T14:31:06;10.20;;;5.80;;
59930;SDS011;45790;51.538;6.736;2023-06-01T14:33:31;16.93;;;6.43;;
59930;SDS011;45790;51.538;6.736;2023-06-01T14:35:56;12.37;;;5.07;;
59930;SDS011;45790;51.538;6.736;2023-06-01T14:38:21;8.95;;;5.88;;
59930;SDS011;45790;51.538;6.736;2023-06-01T14:40:46;12.43;;;6.03;;
59930;SDS011;45790;51.538;6.736;2023-06-01T14:43:12;11.90;;;6.50;;
59930;SDS011;45790;51.538;6.736;2023-06-01T14:45:37;8.67;;;5.43;;
59930;SDS011;45790;51.538;6.736;2023-06-01T14:48:02;10.73;;;5.57;;
59930;SDS011;45790;51.538;6.736;2023-06-01T14:50:27;8.67;;;5.27;;
59930;SDS011;45790;51.538;6.736;2023-06-01T14:52:52;9.90;;;6.00;;
59930;SDS011;45790;51.538;6.736;2023-06-01T14:55:24;15.13;;;5.45;;
59930;SDS011;45790;51.538;6.736;2023-06-01T14:57:49;11.07;;;5.20;;
59930;SDS011;45790;51.538;6.736;2023-06-01T15:00:15;10.55;;;5.50;;
59930;SDS011;45790;51.538;6.736;2023-06-01T15:02:41;8.52;;;5.43;;
59930;SDS011;45790;51.538;6.736;2023-06-01T15:05:06;12.93;;;5.83;;
59930;SDS011;45790;51.538;6.736;2023-06-01T15:07:32;12.02;;;5.38;;
59930;SDS011;45790;51.538;6.736;2023-06-01T15:09:57;9.13;;;5.07;;
59930;SDS011;45790;51.538;6.736;2023-06-01T15:12:22;11.17;;;4.70;;